createdAt,value
2018-06-11T00:01:53.468Z,12.90
2018-06-11T00:04:21.791Z,13.00
2018-06-11T00:06:50.131Z,12.33
2018-06-11T00:09:18.483Z,11.90
2018-06-11T00:11:46.832Z,13.43
2018-06-11T00:14:15.152Z,13.37
2018-06-11T00:16:43.491Z,11.77
2018-06-11T00:19:11.815Z,12.27
2018-06-11T00:21:40.159Z,11.77
2018-06-11T00:24:08.480Z,11.63
2018-06-11T00:26:36.834Z,11.70
2018-06-11T00:29:05.160Z,11.97
2018-06-11T00:31:33.509Z,11.70
2018-06-11T00:34:02.043Z,11.30
2018-06-11T00:36:30.397Z,11.47
2018-06-11T00:38:58.707Z,10.90
2018-06-11T00:41:27.047Z,10.70
2018-06-11T00:43:55.364Z,10.73
2018-06-11T00:46:23.451Z,10.10
2018-06-11T00:48:51.819Z,10.63
2018-06-11T00:51:20.173Z,11.13
2018-06-11T00:53:48.502Z,10.50
2018-06-11T00:56:16.848Z,10.63
2018-06-11T00:58:45.198Z,10.23
2018-06-11T01:01:13.543Z,10.47
2018-06-11T01:03:46.835Z,9.77
2018-06-11T01:06:15.168Z,9.87
2018-06-11T01:08:43.727Z,10.03
2018-06-11T01:11:12.091Z,9.70
2018-06-11T01:13:40.472Z,9.50
2018-06-11T01:16:08.836Z,9.10
2018-06-11T01:18:37.223Z,8.97
2018-06-11T01:21:05.595Z,8.50
2018-06-11T01:23:34.077Z,8.17
2018-06-11T01:26:02.524Z,8.43
2018-06-11T01:28:30.623Z,8.90
2018-06-11T01:30:58.966Z,8.07
2018-06-11T01:33:27.360Z,8.20
2018-06-11T01:35:55.431Z,8.20
2018-06-11T01:38:23.805Z,8.63
2018-06-11T01:40:51.887Z,7.67
2018-06-11T01:43:19.987Z,7.60
2018-06-11T01:45:48.337Z,7.90
2018-06-11T01:48:16.436Z,7.57
2018-06-11T01:50:44.780Z,8.00
2018-06-11T01:53:13.151Z,7.33
2018-06-11T01:55:41.479Z,8.10
2018-06-11T01:58:09.843Z,7.40
2018-06-11T02:00:38.195Z,8.17
2018-06-11T02:03:06.303Z,7.20
2018-06-11T02:05:34.640Z,7.63
2018-06-11T02:08:03.101Z,7.93
2018-06-11T02:10:31.453Z,7.57
2018-06-11T02:12:59.816Z,8.27
2018-06-11T02:15:28.155Z,8.37
2018-06-11T02:17:56.544Z,8.73
2018-06-11T02:20:24.615Z,8.27
2018-06-11T02:22:52.976Z,8.33
2018-06-11T02:25:21.333Z,8.50
2018-06-11T02:27:49.708Z,8.93
2018-06-11T02:30:18.049Z,9.30
2018-06-11T02:32:46.438Z,8.77
2018-06-11T02:35:14.788Z,9.23
2018-06-11T02:37:43.144Z,9.20
2018-06-11T02:40:11.535Z,9.07
2018-06-11T02:42:39.879Z,8.80
2018-06-11T02:45:08.258Z,9.30
2018-06-11T02:47:36.604Z,8.63
2018-06-11T02:50:04.971Z,8.33
2018-06-11T02:52:33.319Z,8.43
2018-06-11T02:55:01.704Z,8.87
2018-06-11T02:57:30.096Z,8.93
2018-06-11T02:59:58.470Z,8.20
2018-06-11T03:02:26.812Z,8.70
2018-06-11T03:04:55.192Z,9.20
2018-06-11T03:07:23.564Z,8.37
2018-06-11T03:09:51.948Z,8.80
2018-06-11T03:12:20.300Z,8.23
2018-06-11T03:14:48.670Z,9.03
2018-06-11T03:17:17.010Z,8.97
2018-06-11T03:19:45.388Z,8.57
2018-06-11T03:22:13.735Z,8.20
2018-06-11T03:24:42.115Z,8.47
2018-06-11T03:27:10.456Z,8.60
2018-06-11T03:29:38.827Z,8.23
2018-06-11T03:32:07.168Z,7.90
2018-06-11T03:34:35.561Z,9.00
2018-06-11T03:37:03.945Z,8.17
2018-06-11T03:39:32.297Z,8.50
2018-06-11T03:42:00.677Z,8.30
2018-06-11T03:44:29.012Z,7.87
2018-06-11T03:46:57.385Z,8.30
2018-06-11T03:49:25.719Z,8.20
2018-06-11T03:51:54.083Z,8.37
2018-06-11T03:54:22.431Z,8.53
2018-06-11T03:56:50.527Z,7.57
2018-06-11T03:59:18.878Z,8.50
2018-06-11T04:01:47.251Z,7.80
2018-06-11T04:04:15.667Z,8.10
2018-06-11T04:06:44.100Z,7.83
2018-06-11T04:09:12.475Z,7.60
2018-06-11T04:11:40.848Z,7.93
2018-06-11T04:14:09.185Z,7.70
2018-06-11T04:16:37.561Z,7.07
2018-06-11T04:19:06.237Z,7.87
2018-06-11T04:21:34.611Z,6.87
2018-06-11T04:24:02.959Z,7.67
2018-06-11T04:26:31.327Z,6.40
2018-06-11T04:28:59.679Z,6.30
2018-06-11T04:31:28.052Z,5.73
2018-06-11T04:33:56.390Z,5.30
2018-06-11T04:36:24.748Z,5.23
2018-06-11T04:38:53.094Z,5.43
2018-06-11T04:41:21.464Z,5.50
2018-06-11T04:43:49.804Z,4.93
2018-06-11T04:46:18.181Z,5.23
2018-06-11T04:48:46.516Z,5.00
2018-06-11T04:51:14.888Z,5.37
2018-06-11T04:53:43.235Z,4.77
2018-06-11T04:56:11.600Z,5.53
2018-06-11T04:58:39.935Z,5.33
2018-06-11T05:01:08.283Z,5.33
2018-06-11T05:03:36.647Z,5.50
2018-06-11T05:06:04.987Z,5.00
2018-06-11T05:08:33.387Z,5.07
2018-06-11T05:11:01.792Z,5.50
2018-06-11T05:13:30.182Z,5.70
2018-06-11T05:15:58.268Z,5.93
2018-06-11T05:18:26.639Z,6.17
2018-06-11T05:20:54.727Z,6.27
2018-06-11T05:23:23.125Z,5.80
2018-06-11T05:25:52.392Z,6.33
2018-06-11T05:28:21.676Z,6.10
2018-06-11T05:30:50.348Z,5.90
2018-06-11T05:33:19.096Z,6.53
2018-06-11T05:35:47.459Z,6.30
2018-06-11T05:38:15.856Z,6.13
2018-06-11T05:40:44.226Z,6.80
2018-06-11T05:43:12.605Z,6.40
2018-06-11T05:45:40.956Z,6.53
2018-06-11T05:48:09.080Z,6.40
2018-06-11T05:50:37.425Z,6.80
2018-06-11T05:53:05.856Z,6.17
2018-06-11T05:55:34.239Z,6.40
2018-06-11T05:58:03.061Z,5.80
2018-06-11T06:00:31.140Z,5.83
2018-06-11T06:02:59.545Z,5.80
2018-06-11T06:05:27.910Z,5.77
2018-06-11T06:07:56.311Z,5.87
2018-06-11T06:10:24.674Z,6.10
2018-06-11T06:12:53.045Z,7.00
2018-06-11T06:15:21.407Z,7.33
2018-06-11T06:17:49.885Z,8.03
2018-06-11T06:20:18.249Z,9.47
2018-06-11T06:22:46.685Z,9.73
2018-06-11T06:25:15.082Z,10.67
2018-06-11T06:27:43.486Z,10.17
2018-06-11T06:30:11.849Z,10.93
2018-06-11T06:32:40.252Z,11.23
2018-06-11T06:35:08.609Z,11.60
2018-06-11T06:37:36.980Z,11.90
2018-06-11T06:40:05.446Z,11.53
2018-06-11T06:42:35.658Z,12.10
2018-06-11T06:45:04.556Z,11.57
2018-06-11T06:47:32.939Z,12.40
2018-06-11T06:50:01.336Z,12.57
2018-06-11T06:52:29.745Z,12.67
2018-06-11T06:54:58.137Z,13.70
2018-06-11T06:57:26.227Z,13.67
2018-06-11T06:59:54.713Z,12.63
2018-06-11T07:02:23.103Z,11.37
2018-06-11T07:04:51.494Z,12.50
2018-06-11T07:07:19.949Z,11.93
2018-06-11T07:09:48.340Z,13.27
2018-06-11T07:12:16.861Z,12.80
2018-06-11T07:14:45.248Z,11.10
2018-06-11T07:17:13.612Z,12.03
2018-06-11T07:19:42.008Z,11.80
2018-06-11T07:22:10.436Z,12.03
2018-06-11T07:24:38.812Z,11.30
2018-06-11T07:27:07.200Z,10.93
2018-06-11T07:29:35.547Z,11.10
2018-06-11T07:32:03.973Z,11.50
2018-06-11T07:34:32.358Z,9.53
2018-06-11T07:37:00.729Z,10.00
2018-06-11T07:39:29.129Z,10.83
2018-06-11T07:41:57.525Z,9.50
2018-06-11T07:44:25.932Z,8.63
2018-06-11T07:46:54.335Z,8.60
2018-06-11T07:49:22.677Z,8.43
2018-06-11T07:51:51.054Z,7.97
2018-06-11T07:54:19.404Z,7.20
2018-06-11T07:56:47.788Z,7.03
2018-06-11T07:59:16.132Z,7.30
2018-06-11T08:01:44.513Z,7.07
2018-06-11T08:04:12.856Z,8.33
2018-06-11T08:06:41.231Z,7.43
2018-06-11T08:09:09.616Z,7.33
2018-06-11T08:11:38.012Z,7.17
2018-06-11T08:14:06.352Z,7.63
2018-06-11T08:16:34.713Z,8.10
2018-06-11T08:19:03.061Z,8.20
2018-06-11T08:21:31.447Z,7.53
2018-06-11T08:23:59.784Z,8.40
2018-06-11T08:26:28.157Z,8.63
2018-06-11T08:28:56.512Z,7.70
2018-06-11T08:31:24.886Z,8.90
2018-06-11T08:33:53.234Z,8.73
2018-06-11T08:36:21.612Z,8.17
2018-06-11T08:38:49.986Z,8.90
2018-06-11T08:41:18.384Z,8.80
2018-06-11T08:43:46.754Z,9.37
2018-06-11T08:46:14.882Z,9.00
2018-06-11T08:48:43.224Z,9.63
2018-06-11T08:51:11.619Z,9.30
2018-06-11T08:53:39.682Z,8.77
2018-06-11T08:56:08.089Z,9.07
2018-06-11T08:58:36.439Z,9.77
2018-06-11T09:01:04.814Z,9.83
2018-06-11T09:03:33.179Z,9.80
2018-06-11T09:06:01.552Z,9.17
2018-06-11T09:08:30.013Z,9.83
2018-06-11T09:10:58.388Z,9.73
2018-06-11T09:13:26.735Z,10.07
2018-06-11T09:15:55.114Z,10.13
2018-06-11T09:18:23.624Z,9.77
2018-06-11T09:20:51.856Z,9.43
2018-06-11T09:23:20.196Z,9.57
2018-06-11T09:25:48.596Z,9.67
2018-06-11T09:28:16.663Z,8.93
2018-06-11T09:30:44.737Z,9.33
2018-06-11T09:33:12.842Z,9.90
2018-06-11T09:35:41.178Z,9.77
2018-06-11T09:38:09.327Z,9.53
2018-06-11T09:40:37.629Z,9.83
2018-06-11T09:43:06.103Z,9.40
2018-06-11T09:45:34.440Z,9.03
2018-06-11T09:48:02.810Z,9.83
2018-06-11T09:50:31.150Z,10.00
2018-06-11T09:52:59.527Z,9.23
2018-06-11T09:55:27.873Z,8.70
2018-06-11T09:57:56.253Z,9.40
2018-06-11T10:00:29.887Z,9.67
2018-06-11T10:02:58.248Z,9.30
2018-06-11T10:05:26.590Z,8.67
2018-06-11T10:07:54.991Z,8.90
2018-06-11T10:10:23.328Z,9.17
2018-06-11T10:12:51.692Z,8.97
2018-06-11T10:15:19.757Z,9.37
2018-06-11T10:17:48.127Z,9.07
2018-06-11T10:20:16.498Z,9.20
2018-06-11T10:22:44.867Z,8.97
2018-06-11T10:25:13.216Z,9.53
2018-06-11T10:27:41.602Z,9.27
2018-06-11T10:30:09.987Z,8.90
2018-06-11T10:32:38.352Z,9.43
2018-06-11T10:35:06.697Z,9.20
2018-06-11T10:37:35.080Z,9.23
2018-06-11T10:40:03.207Z,9.23
2018-06-11T10:42:31.588Z,8.70
2018-06-11T10:44:59.928Z,8.73
2018-06-11T10:47:28.291Z,9.70
2018-06-11T10:49:56.361Z,9.80
2018-06-11T10:52:24.455Z,8.60
2018-06-11T10:54:52.799Z,8.70
2018-06-11T10:57:21.181Z,9.07
2018-06-11T10:59:49.529Z,8.63
2018-06-11T11:02:17.892Z,7.87
2018-06-11T11:04:46.257Z,8.20
2018-06-11T11:07:14.727Z,8.23
2018-06-11T11:09:43.070Z,8.60
2018-06-11T11:12:11.444Z,9.00
2018-06-11T11:14:39.812Z,7.87
2018-06-11T11:17:08.147Z,7.47
2018-06-11T11:19:36.500Z,7.80
2018-06-11T11:22:04.854Z,7.27
2018-06-11T11:24:33.228Z,7.70
2018-06-11T11:27:01.576Z,7.47
2018-06-11T11:29:29.945Z,8.00
2018-06-11T11:31:58.287Z,8.07
2018-06-11T11:34:26.660Z,7.33
2018-06-11T11:36:54.990Z,8.00
2018-06-11T11:39:23.364Z,7.60
2018-06-11T11:41:51.692Z,7.13
2018-06-11T11:44:20.072Z,6.47
2018-06-11T11:46:48.418Z,6.70
2018-06-11T11:49:16.792Z,6.73
2018-06-11T11:51:45.136Z,6.27
2018-06-11T11:54:13.504Z,6.63
2018-06-11T11:56:41.848Z,6.53
2018-06-11T11:59:10.205Z,6.10
2018-06-11T12:01:38.629Z,7.00
2018-06-11T12:04:06.982Z,6.67
2018-06-11T12:06:35.372Z,6.30
2018-06-11T12:09:06.053Z,5.60
2018-06-11T12:11:34.523Z,6.57
2018-06-11T12:14:02.882Z,6.95
2018-06-11T12:16:31.249Z,7.20
2018-06-11T12:19:00.103Z,7.37
2018-06-11T12:21:28.437Z,6.87
2018-06-11T12:23:56.780Z,6.55
2018-06-11T12:26:25.154Z,6.47
2018-06-11T12:28:53.488Z,6.35
2018-06-11T12:31:21.597Z,6.67
2018-06-11T12:33:49.935Z,7.47
2018-06-11T12:36:18.331Z,6.80
2018-06-11T12:38:47.545Z,7.42
2018-06-11T12:41:16.612Z,7.25
2018-06-11T12:43:44.951Z,6.87
2018-06-11T12:46:13.324Z,7.12
2018-06-11T12:48:41.694Z,6.80
2018-06-11T12:51:10.050Z,6.65
2018-06-11T12:53:38.409Z,8.08
2018-06-11T12:56:06.816Z,7.10
2018-06-11T12:58:35.168Z,7.28
2018-06-11T13:01:03.528Z,7.85
2018-06-11T13:03:32.077Z,7.70
2018-06-11T13:06:00.452Z,7.37
2018-06-11T13:08:30.585Z,6.95
2018-06-11T13:10:59.750Z,6.72
2018-06-11T13:13:28.495Z,6.15
2018-06-11T13:15:59.237Z,6.47
2018-06-11T13:18:28.442Z,6.95
2018-06-11T13:20:58.103Z,6.62
2018-06-11T13:23:26.476Z,6.55
2018-06-11T13:25:55.378Z,6.17
2018-06-11T13:28:24.343Z,7.15
2018-06-11T13:30:53.222Z,6.80
2018-06-11T13:33:21.732Z,6.80
2018-06-11T13:35:50.062Z,6.12
2018-06-11T13:38:18.438Z,5.90
2018-06-11T13:40:46.781Z,6.15
2018-06-11T13:43:15.154Z,5.70
2018-06-11T13:45:43.488Z,5.80
2018-06-11T13:48:11.867Z,6.12
2018-06-11T13:50:40.191Z,5.60
2018-06-11T13:53:08.574Z,5.35
2018-06-11T13:55:36.909Z,5.80
2018-06-11T13:58:05.469Z,5.28
2018-06-11T14:00:33.796Z,5.78
2018-06-11T14:03:02.152Z,5.20
2018-06-11T14:05:30.484Z,5.17
2018-06-11T14:07:58.888Z,5.50
2018-06-11T14:10:27.213Z,4.90
2018-06-11T14:12:55.295Z,5.00
2018-06-11T14:15:23.634Z,5.50
2018-06-11T14:17:51.961Z,6.55
2018-06-11T14:20:20.347Z,6.47
2018-06-11T14:22:48.680Z,7.03
2018-06-11T14:25:17.039Z,5.20
2018-06-11T14:27:45.371Z,4.97
2018-06-11T14:30:13.732Z,5.50
2018-06-11T14:32:42.068Z,6.28
2018-06-11T14:35:10.435Z,5.92
2018-06-11T14:37:38.781Z,5.85
2018-06-11T14:40:07.185Z,5.60
2018-06-11T14:42:35.611Z,6.08
2018-06-11T14:45:03.999Z,5.17
2018-06-11T14:47:32.341Z,5.55
2018-06-11T14:50:00.711Z,7.40
2018-06-11T14:52:34.302Z,6.62
2018-06-11T14:55:02.674Z,7.40
2018-06-11T14:57:31.028Z,6.65
2018-06-11T14:59:59.118Z,7.72
2018-06-11T15:02:27.455Z,6.42
2018-06-11T15:04:55.812Z,5.97
2018-06-11T15:07:24.176Z,5.75
2018-06-11T15:09:52.545Z,6.20
2018-06-11T15:12:20.875Z,6.40
2018-06-11T15:14:49.228Z,5.97
2018-06-11T15:17:17.552Z,6.17
2018-06-11T15:19:45.661Z,5.78
2018-06-11T15:22:13.988Z,5.92
2018-06-11T15:24:42.311Z,5.00
2018-06-11T15:27:10.678Z,4.67
2018-06-11T15:29:38.996Z,5.58
2018-06-11T15:32:07.364Z,5.12
2018-06-11T15:34:35.701Z,4.85
2018-06-11T15:37:04.083Z,5.37
2018-06-11T15:39:32.409Z,5.28
2018-06-11T15:42:00.790Z,5.10
2018-06-11T15:44:29.161Z,5.33
2018-06-11T15:46:57.560Z,5.53
2018-06-11T15:49:25.902Z,4.80
2018-06-11T15:51:54.265Z,6.00
2018-06-11T15:54:22.591Z,5.25
2018-06-11T15:56:51.028Z,5.80
2018-06-11T15:59:19.359Z,5.35
2018-06-11T16:01:47.473Z,5.22
2018-06-11T16:04:15.528Z,4.80
2018-06-11T16:06:43.894Z,5.03
2018-06-11T16:09:12.259Z,4.55
2018-06-11T16:11:40.628Z,4.67
2018-06-11T16:14:09.339Z,4.25
2018-06-11T16:16:37.772Z,4.03
2018-06-11T16:19:06.127Z,4.35
2018-06-11T16:21:34.487Z,4.90
2018-06-11T16:24:02.821Z,4.72
2018-06-11T16:26:31.148Z,4.60
2018-06-11T16:28:59.231Z,3.75
2018-06-11T16:31:27.279Z,4.78
2018-06-11T16:33:55.636Z,4.50
2018-06-11T16:36:23.968Z,4.35
2018-06-11T16:38:52.323Z,4.45
2018-06-11T16:41:20.673Z,4.28
2018-06-11T16:43:49.048Z,4.47
2018-06-11T16:46:17.380Z,4.92
2018-06-11T16:48:45.756Z,4.87
2018-06-11T16:51:14.104Z,5.83
2018-06-11T16:53:42.473Z,4.70
2018-06-11T16:56:10.813Z,4.47
2018-06-11T16:58:39.181Z,4.00
2018-06-11T17:01:07.516Z,4.00
2018-06-11T17:03:35.875Z,4.30
2018-06-11T17:06:04.208Z,4.08
2018-06-11T17:08:32.328Z,4.53
2018-06-11T17:11:00.668Z,5.05
2018-06-11T17:13:29.036Z,4.58
2018-06-11T17:15:57.098Z,4.97
2018-06-11T17:18:25.465Z,4.55
2018-06-11T17:20:53.796Z,4.90
2018-06-11T17:23:22.160Z,4.37
2018-06-11T17:25:50.505Z,4.60
2018-06-11T17:28:18.864Z,4.28
2018-06-11T17:30:47.222Z,3.87
2018-06-11T17:33:15.548Z,4.67
2018-06-11T17:35:43.929Z,4.60
2018-06-11T17:38:12.272Z,4.50
2018-06-11T17:40:40.627Z,5.10
2018-06-11T17:43:09.240Z,4.90
2018-06-11T17:45:37.613Z,5.22
2018-06-11T17:48:06.076Z,4.40
2018-06-11T17:50:34.466Z,4.40
2018-06-11T17:53:02.793Z,5.10
2018-06-11T17:55:31.163Z,4.75
2018-06-11T17:57:59.497Z,4.15
2018-06-11T18:00:27.909Z,4.28
2018-06-11T18:02:56.694Z,4.80
2018-06-11T18:05:25.073Z,4.90
2018-06-11T18:07:53.460Z,4.65
2018-06-11T18:10:21.836Z,4.90
2018-06-11T18:12:50.159Z,5.35
2018-06-11T18:15:18.520Z,5.27
2018-06-11T18:17:46.891Z,4.97
2018-06-11T18:20:15.270Z,4.50
2018-06-11T18:22:43.640Z,4.47
2018-06-11T18:25:12.027Z,4.67
2018-06-11T18:27:40.392Z,4.60
2018-06-11T18:30:08.793Z,4.70
2018-06-11T18:32:37.131Z,4.50
2018-06-11T18:35:05.512Z,4.50
2018-06-11T18:37:33.852Z,4.40
2018-06-11T18:40:02.226Z,4.30
2018-06-11T18:42:31.131Z,4.50
2018-06-11T18:44:59.509Z,4.47
2018-06-11T18:47:27.854Z,4.53
2018-06-11T18:49:56.249Z,4.33
2018-06-11T18:52:24.387Z,4.63
2018-06-11T18:54:52.759Z,4.90
2018-06-11T18:57:21.104Z,4.50
2018-06-11T18:59:49.457Z,4.60
2018-06-11T19:02:17.829Z,4.30
2018-06-11T19:04:46.231Z,5.23
2018-06-11T19:07:14.614Z,5.23
2018-06-11T19:09:43.000Z,5.10
2018-06-11T19:12:11.379Z,4.97
2018-06-11T19:14:39.721Z,5.10
2018-06-11T19:17:08.100Z,5.40
2018-06-11T19:19:36.442Z,5.30
2018-06-11T19:22:04.824Z,5.17
2018-06-11T19:24:33.176Z,4.90
2018-06-11T19:27:01.556Z,5.47
2018-06-11T19:29:29.879Z,5.07
2018-06-11T19:31:58.305Z,4.87
2018-06-11T19:34:26.649Z,4.73
2018-06-11T19:36:55.011Z,4.43
2018-06-11T19:39:23.371Z,4.63
2018-06-11T19:41:51.793Z,5.03
2018-06-11T19:44:20.197Z,4.90
2018-06-11T19:46:48.608Z,4.43
2018-06-11T19:49:16.954Z,5.07
2018-06-11T19:51:45.069Z,4.60
2018-06-11T19:54:13.447Z,4.57
2018-06-11T19:56:41.837Z,4.37
2018-06-11T19:59:09.867Z,5.10
2018-06-11T20:01:38.260Z,5.00
2018-06-11T20:04:06.584Z,5.13
2018-06-11T20:06:34.964Z,5.07
2018-06-11T20:09:03.391Z,5.20
2018-06-11T20:11:31.759Z,5.23
2018-06-11T20:14:00.084Z,5.17
2018-06-11T20:16:28.461Z,4.97
2018-06-11T20:18:56.807Z,5.07
2018-06-11T20:21:25.168Z,5.00
2018-06-11T20:23:53.227Z,4.87
2018-06-11T20:26:21.901Z,5.33
2018-06-11T20:28:52.300Z,5.40
2018-06-11T20:31:20.758Z,5.10
2018-06-11T20:33:49.093Z,5.20
2018-06-11T20:36:17.476Z,5.30
2018-06-11T20:38:45.803Z,5.67
2018-06-11T20:41:14.144Z,5.57
2018-06-11T20:43:42.520Z,5.50
2018-06-11T20:46:10.864Z,5.90
2018-06-11T20:48:39.237Z,5.27
2018-06-11T20:51:07.583Z,5.67
2018-06-11T20:53:35.944Z,5.77
2018-06-11T20:56:04.012Z,5.67
2018-06-11T20:58:32.383Z,5.57
2018-06-11T21:01:00.728Z,4.97
2018-06-11T21:03:29.186Z,5.77
2018-06-11T21:05:57.448Z,6.17
2018-06-11T21:08:25.852Z,5.83
2018-06-11T21:10:56.843Z,6.17
2018-06-11T21:13:28.215Z,6.00
2018-06-11T21:15:59.263Z,5.60
2018-06-11T21:18:30.002Z,6.13
2018-06-11T21:20:59.922Z,6.27
2018-06-11T21:23:28.435Z,6.50
2018-06-11T21:25:56.828Z,6.20
2018-06-11T21:28:25.202Z,5.83
2018-06-11T21:30:53.523Z,6.53
2018-06-11T21:33:21.884Z,6.13
2018-06-11T21:35:50.212Z,6.47
2018-06-11T21:38:18.561Z,6.73
2018-06-11T21:40:46.880Z,6.77
2018-06-11T21:43:15.231Z,6.80
2018-06-11T21:45:44.403Z,6.60
2018-06-11T21:48:12.859Z,6.60
2018-06-11T21:50:41.191Z,6.73
2018-06-11T21:53:09.546Z,6.80
2018-06-11T21:55:37.871Z,6.43
2018-06-11T21:58:06.236Z,6.33
2018-06-11T22:00:34.620Z,6.63
2018-06-11T22:03:02.993Z,6.60
2018-06-11T22:05:31.329Z,6.87
2018-06-11T22:07:59.720Z,6.97
2018-06-11T22:10:28.050Z,6.63
2018-06-11T22:12:56.439Z,7.17
2018-06-11T22:15:24.775Z,6.93
2018-06-11T22:17:53.144Z,7.77
2018-06-11T22:20:21.480Z,7.33
2018-06-11T22:22:49.843Z,7.13
2018-06-11T22:25:18.181Z,7.60
2018-06-11T22:27:46.275Z,7.07
2018-06-11T22:30:14.620Z,7.27
2018-06-11T22:32:42.960Z,7.33
2018-06-11T22:35:11.331Z,7.33
2018-06-11T22:37:39.671Z,6.97
2018-06-11T22:40:07.756Z,6.57
2018-06-11T22:42:35.810Z,7.07
2018-06-11T22:45:04.192Z,7.23
2018-06-11T22:47:32.521Z,7.63
2018-06-11T22:50:00.879Z,8.13
2018-06-11T22:52:29.207Z,8.03
2018-06-11T22:54:57.575Z,7.80
2018-06-11T22:57:25.916Z,7.77
2018-06-11T22:59:54.279Z,8.07
2018-06-11T23:02:22.338Z,8.13
2018-06-11T23:04:50.701Z,9.00
2018-06-11T23:07:19.071Z,8.23
2018-06-11T23:09:47.439Z,8.97
2018-06-11T23:12:15.759Z,8.43
2018-06-11T23:14:44.115Z,8.03
2018-06-11T23:17:12.465Z,8.17
2018-06-11T23:19:40.828Z,8.10
2018-06-11T23:22:09.156Z,8.30
2018-06-11T23:24:37.539Z,8.23
2018-06-11T23:27:05.868Z,8.90
2018-06-11T23:29:34.262Z,8.10
2018-06-11T23:32:02.840Z,8.47
2018-06-11T23:34:31.249Z,8.60
2018-06-11T23:36:59.593Z,8.10
2018-06-11T23:39:27.986Z,8.20
2018-06-11T23:41:56.311Z,7.63
2018-06-11T23:44:24.403Z,8.37
2018-06-11T23:46:52.756Z,8.07
2018-06-11T23:49:21.108Z,8.30
2018-06-11T23:51:49.439Z,8.30
2018-06-11T23:54:17.804Z,8.33
2018-06-11T23:56:46.146Z,8.03
2018-06-11T23:59:14.511Z,8.33
